ETHF/FRZ METAR and TAF weather

Enter ICAO airport designator
Station Type Date Time Source
ETHF METAR 2019/04/25 15:20 UTC NOAA

ETHF 251520Z 13005KT 9999 SCT110 SCT300 23/07 Q1007 BLU+


Station Type Date Time Source
ETHF Decoded METAR 2019/04/25 15:20 UTC NOAA

Fritzlar, Germany (ETHF) 51-07N 009-17E 181M
Apr 25, 2019 - 11:20 AM EDT / 2019.04.25 1520 UTC
Wind: from the SE (130 degrees) at 6 MPH (5 KT):0
Visibility: greater than 7 mile(s):0
Sky conditions: partly cloudy
Temperature: 73 F (23 C)
Dew Point: 44 F (7 C)
Relative Humidity: 35%
Pressure (altimeter): 29.74 in. Hg (1007 hPa)
ob: ETHF 251520Z 13005KT 9999 SCT110 SCT300 23/07 Q1007 BLU+
cycle: 15

Station Type Date Time Source
ETHF TAF 2018/05/18 05:37 UTC NOAA

TAF ETHF 180407Z 1805/1818 35006KT 9999 NSW BKN020
TEMPO 1805/1808 33005KT 9999 NSW BKN012
BECMG 1809/1811 36008KT 9999 NSW SCT030 BKN180

Example: see airport list